Princeton, Maine
Current Conditions -  °F | °C
As of 12:53 PM on Thursday 27 Nov 2014 (Local Time) from KMLT Reporting Station
Broken Clouds Broken Clouds  
Wind Chill: 19°   Ceiling: 3400
Heat Index: 30°   Visibility: 10mi
Dew Point: 19°   Wind: 15mph
Humidity: 64%   Direction: 340°NNW
Pressure: 29.88"   Gusts: 21mph
Location:  45.22°N, 67.57°W
Report Text: KMLT 271753Z AUTO 34013G18KT 10SM BKN034 M01/M07 A2988 RMK AO2 SLP129 60000 T10111072 11011 21039 51017 $
Loading
Personal Weather Stations






























Interactive Weather Map New forecast layout! Learn more

10-Day Weather Forecast

Advertisements
Track Severe Weather on mobile